createdAt,value
2023-09-14T00:01:04.249Z,9.60
2023-09-14T00:03:31.626Z,9.60
2023-09-14T00:05:58.918Z,9.60
2023-09-14T00:08:31.130Z,9.60
2023-09-14T00:11:01.269Z,9.60
2023-09-14T00:13:28.442Z,9.60
2023-09-14T00:15:55.677Z,9.60
2023-09-14T00:18:23.102Z,9.50
2023-09-14T00:20:54.013Z,9.50
2023-09-14T00:23:22.194Z,9.40
2023-09-14T00:25:50.419Z,9.40
2023-09-14T00:28:18.486Z,9.50
2023-09-14T00:30:45.715Z,9.40
2023-09-14T00:33:12.907Z,9.40
2023-09-14T00:35:39.995Z,9.40
2023-09-14T00:38:07.110Z,9.40
2023-09-14T00:40:34.542Z,9.40
2023-09-14T00:43:01.779Z,9.30
2023-09-14T00:45:29.128Z,9.30
2023-09-14T00:47:59.127Z,9.30
2023-09-14T00:50:27.964Z,9.30
2023-09-14T00:53:16.693Z,9.30
2023-09-14T00:55:45.655Z,9.30
2023-09-14T00:58:16.670Z,9.30
2023-09-14T01:00:47.765Z,9.20
2023-09-14T01:03:15.773Z,9.30
2023-09-14T01:05:45.281Z,9.30
2023-09-14T01:08:12.616Z,9.30
2023-09-14T01:10:39.818Z,9.30
2023-09-14T01:13:15.072Z,9.30
2023-09-14T01:15:54.368Z,9.20
2023-09-14T01:18:38.078Z,9.20
2023-09-14T01:21:36.886Z,9.20
2023-09-14T01:24:26.255Z,9.20
2023-09-14T01:26:53.712Z,9.20
2023-09-14T01:29:20.874Z,9.20
2023-09-14T01:31:48.766Z,9.20
2023-09-14T01:34:18.093Z,9.10
2023-09-14T01:36:55.094Z,9.10
2023-09-14T01:39:26.022Z,9.10
2023-09-14T01:41:56.402Z,9.10
2023-09-14T01:44:26.526Z,9.10
2023-09-14T01:46:56.128Z,9.10
2023-09-14T01:49:23.773Z,9.10
2023-09-14T01:51:51.134Z,9.00
2023-09-14T01:54:18.553Z,9.00
2023-09-14T01:56:46.463Z,9.00
2023-09-14T01:59:13.549Z,9.10
2023-09-14T02:01:40.809Z,9.10
2023-09-14T02:04:08.132Z,9.10
2023-09-14T02:06:35.252Z,9.10
2023-09-14T02:09:02.718Z,9.20
2023-09-14T02:11:29.811Z,9.10
2023-09-14T02:13:56.860Z,9.10
2023-09-14T02:16:24.080Z,9.00
2023-09-14T02:18:51.293Z,9.00
2023-09-14T02:21:19.445Z,9.00
2023-09-14T02:23:49.029Z,9.00
2023-09-14T02:26:16.057Z,8.90
2023-09-14T02:28:43.236Z,8.80
2023-09-14T02:31:10.884Z,8.80
2023-09-14T02:33:38.845Z,8.80
2023-09-14T02:36:07.461Z,8.80
2023-09-14T02:38:34.736Z,8.70
2023-09-14T02:41:01.907Z,8.70
2023-09-14T02:43:29.244Z,8.70
2023-09-14T02:45:56.391Z,8.70
2023-09-14T02:48:23.588Z,8.60
2023-09-14T02:50:50.685Z,8.60
2023-09-14T02:53:17.738Z,8.60
2023-09-14T02:55:44.838Z,8.60
2023-09-14T02:58:12.472Z,8.60
2023-09-14T03:00:43.175Z,8.60
2023-09-14T03:03:15.721Z,8.60
2023-09-14T03:05:42.866Z,8.60
2023-09-14T03:08:10.123Z,8.60
2023-09-14T03:10:38.703Z,8.50
2023-09-14T03:13:05.837Z,8.60
2023-09-14T03:15:35.917Z,8.50
2023-09-14T03:18:04.038Z,8.50
2023-09-14T03:20:31.204Z,8.40
2023-09-14T03:22:59.606Z,8.40
2023-09-14T03:25:26.658Z,8.40
2023-09-14T03:27:53.691Z,8.40
2023-09-14T03:30:20.779Z,8.40
2023-09-14T03:32:48.753Z,8.40
2023-09-14T03:35:16.616Z,8.40
2023-09-14T03:37:43.786Z,8.30
2023-09-14T03:40:11.739Z,8.30
2023-09-14T03:42:39.740Z,8.30
2023-09-14T03:45:08.904Z,8.30
2023-09-14T03:47:36.088Z,8.30
2023-09-14T03:50:04.751Z,8.30
2023-09-14T03:52:31.818Z,8.30
2023-09-14T03:54:58.989Z,8.30
2023-09-14T03:57:26.416Z,8.30
2023-09-14T03:59:54.290Z,8.30
2023-09-14T04:02:21.649Z,8.30
2023-09-14T04:04:48.705Z,8.30
2023-09-14T04:07:17.970Z,8.30
2023-09-14T04:09:46.038Z,8.30
2023-09-14T04:12:13.347Z,8.30
2023-09-14T04:14:40.562Z,8.20
2023-09-14T04:17:07.826Z,8.20
2023-09-14T04:19:34.935Z,8.20
2023-09-14T04:22:02.040Z,8.20
2023-09-14T04:24:30.483Z,8.30
2023-09-14T04:26:57.865Z,8.30
2023-09-14T04:29:25.313Z,8.20
2023-09-14T04:31:52.483Z,8.30
2023-09-14T04:34:19.900Z,8.20
2023-09-14T04:36:47.077Z,8.20
2023-09-14T04:39:14.171Z,8.20
2023-09-14T04:41:41.671Z,8.20
2023-09-14T04:44:10.307Z,8.20
2023-09-14T04:46:37.574Z,8.10
2023-09-14T04:49:05.131Z,8.20
2023-09-14T04:51:32.251Z,8.10
2023-09-14T04:54:00.362Z,8.10
2023-09-14T04:56:28.566Z,8.10
2023-09-14T04:58:55.651Z,8.10
2023-09-14T05:01:22.874Z,8.10
2023-09-14T05:03:50.968Z,8.10
2023-09-14T05:06:19.140Z,8.00
2023-09-14T05:08:46.803Z,8.00
2023-09-14T05:11:14.261Z,8.10
2023-09-14T05:13:41.567Z,8.00
2023-09-14T05:16:08.939Z,8.00
2023-09-14T05:18:36.970Z,8.00
2023-09-14T05:21:04.268Z,8.10
2023-09-14T05:23:31.380Z,8.00
2023-09-14T05:25:58.518Z,8.10
2023-09-14T05:28:26.482Z,8.10
2023-09-14T05:30:53.728Z,8.10
2023-09-14T05:33:21.344Z,8.10
2023-09-14T05:35:50.311Z,8.10
2023-09-14T05:38:18.175Z,8.10
2023-09-14T05:40:46.613Z,8.10
2023-09-14T05:43:14.018Z,8.10
2023-09-14T05:45:42.771Z,8.20
2023-09-14T05:48:10.041Z,8.30
2023-09-14T05:50:37.747Z,8.30
2023-09-14T05:53:07.296Z,8.30
2023-09-14T05:55:35.347Z,8.40
2023-09-14T05:58:02.760Z,8.40
2023-09-14T06:00:30.712Z,8.50
2023-09-14T06:02:59.336Z,8.50
2023-09-14T06:05:26.930Z,8.50
2023-09-14T06:07:55.387Z,8.60
2023-09-14T06:10:25.242Z,8.60
2023-09-14T06:12:52.597Z,8.70
2023-09-14T06:15:20.385Z,8.80
2023-09-14T06:17:49.010Z,8.80
2023-09-14T06:20:16.886Z,8.90
2023-09-14T06:22:44.083Z,9.00
2023-09-14T06:25:11.632Z,9.00
2023-09-14T06:27:38.746Z,9.10
2023-09-14T06:30:07.670Z,9.20
2023-09-14T06:32:34.687Z,9.30
2023-09-14T06:35:02.510Z,9.30
2023-09-14T06:37:29.716Z,9.40
2023-09-14T06:39:57.691Z,9.50
2023-09-14T06:42:24.848Z,9.60
2023-09-14T06:44:52.625Z,9.60
2023-09-14T06:47:19.709Z,9.70
2023-09-14T06:49:48.345Z,9.80
2023-09-14T06:52:15.511Z,9.90
2023-09-14T06:54:43.481Z,10.00
2023-09-14T06:57:10.536Z,10.20
2023-09-14T06:59:37.976Z,10.20
2023-09-14T07:02:06.497Z,10.40
2023-09-14T07:04:35.774Z,10.50
2023-09-14T07:07:02.995Z,10.70
2023-09-14T07:09:30.465Z,10.80
2023-09-14T07:11:57.609Z,11.00
2023-09-14T07:14:24.706Z,11.20
2023-09-14T07:16:51.905Z,11.30
2023-09-14T07:19:19.230Z,11.50
2023-09-14T07:21:46.460Z,11.70
2023-09-14T07:24:13.577Z,11.90
2023-09-14T07:26:40.838Z,12.10
2023-09-14T07:29:09.166Z,12.30
2023-09-14T07:31:37.328Z,12.40
2023-09-14T07:34:04.716Z,12.70
2023-09-14T07:36:31.897Z,12.80
2023-09-14T07:39:01.013Z,13.00
2023-09-14T07:41:28.086Z,13.30
2023-09-14T07:43:55.965Z,13.50
2023-09-14T07:46:23.094Z,13.70
2023-09-14T07:48:50.598Z,13.80
2023-09-14T07:51:17.862Z,14.00
2023-09-14T07:53:45.858Z,14.20
2023-09-14T07:56:13.155Z,14.40
2023-09-14T07:58:40.302Z,14.60
2023-09-14T08:01:07.370Z,14.80
2023-09-14T08:03:34.455Z,14.90
2023-09-14T08:06:01.717Z,15.10
2023-09-14T08:08:28.827Z,15.20
2023-09-14T08:10:56.940Z,15.30
2023-09-14T08:13:24.546Z,15.50
2023-09-14T08:15:51.987Z,15.60
2023-09-14T08:18:22.831Z,15.70
2023-09-14T08:20:50.092Z,15.80
2023-09-14T08:23:19.305Z,15.90
2023-09-14T08:25:49.694Z,16.10
2023-09-14T08:28:20.574Z,16.30
2023-09-14T08:30:50.222Z,16.40
2023-09-14T08:33:20.559Z,16.50
2023-09-14T08:35:49.498Z,16.50
2023-09-14T08:38:20.420Z,16.70
2023-09-14T08:40:54.817Z,16.70
2023-09-14T08:43:22.374Z,16.90
2023-09-14T08:45:52.039Z,16.90
2023-09-14T08:48:23.608Z,16.90
2023-09-14T08:50:53.676Z,16.90
2023-09-14T08:53:23.677Z,17.00
2023-09-14T08:55:52.163Z,17.10
2023-09-14T08:58:20.917Z,17.30
2023-09-14T09:00:49.448Z,17.40
2023-09-14T09:03:17.080Z,17.50
2023-09-14T09:05:44.514Z,17.70
2023-09-14T09:08:12.322Z,17.70
2023-09-14T09:10:41.755Z,17.90
2023-09-14T09:13:08.921Z,18.00
2023-09-14T09:15:38.256Z,18.20
2023-09-14T09:18:08.926Z,18.30
2023-09-14T09:20:39.252Z,18.30
2023-09-14T09:23:07.338Z,18.30
2023-09-14T09:25:55.147Z,18.50
2023-09-14T09:28:33.265Z,18.60
2023-09-14T09:31:00.930Z,18.70
2023-09-14T09:33:37.832Z,18.70
2023-09-14T09:36:16.806Z,18.70
2023-09-14T09:38:46.838Z,18.70
2023-09-14T09:41:17.022Z,18.70
2023-09-14T09:43:45.611Z,18.90
2023-09-14T09:46:18.023Z,18.90
2023-09-14T09:48:46.454Z,18.80
2023-09-14T09:51:14.105Z,18.80
2023-09-14T09:54:08.199Z,18.80
2023-09-14T09:56:39.749Z,18.90
2023-09-14T09:59:11.330Z,19.00
2023-09-14T10:01:40.095Z,19.10
2023-09-14T10:04:13.056Z,19.10
2023-09-14T10:06:42.177Z,19.20
2023-09-14T10:09:12.384Z,19.20
2023-09-14T10:11:41.012Z,19.20
2023-09-14T10:14:14.768Z,19.30
2023-09-14T10:16:44.419Z,19.40
2023-09-14T10:19:13.032Z,19.40
2023-09-14T10:21:44.169Z,19.60
2023-09-14T10:24:15.945Z,19.70
2023-09-14T10:26:46.976Z,19.80
2023-09-14T10:29:14.721Z,19.80
2023-09-14T10:31:47.750Z,20.00
2023-09-14T10:34:17.398Z,20.00
2023-09-14T10:36:46.999Z,19.90
2023-09-14T10:39:17.904Z,19.90
2023-09-14T10:41:45.555Z,20.00
2023-09-14T10:44:12.919Z,19.80
2023-09-14T10:46:43.652Z,19.90
2023-09-14T10:49:11.266Z,19.90
2023-09-14T10:51:38.381Z,19.90
2023-09-14T10:54:06.042Z,19.70
2023-09-14T10:56:34.065Z,19.80
2023-09-14T10:59:10.954Z,20.10
2023-09-14T11:04:21.110Z,19.90
2023-09-14T11:06:57.850Z,19.80
2023-09-14T11:09:26.393Z,19.80
2023-09-14T11:11:57.460Z,20.30
2023-09-14T11:14:28.927Z,20.60
2023-09-14T11:16:59.062Z,20.90
2023-09-14T11:19:51.415Z,21.20
2023-09-14T11:22:27.980Z,21.20
2023-09-14T11:24:57.291Z,21.00
2023-09-14T11:27:29.662Z,20.70
2023-09-14T11:30:00.503Z,20.30
2023-09-14T11:32:30.493Z,20.40
2023-09-14T11:35:04.016Z,20.80
2023-09-14T11:37:35.071Z,20.70
2023-09-14T11:40:20.110Z,20.80
2023-09-14T11:43:39.443Z,20.90
2023-09-14T11:46:17.636Z,21.10
2023-09-14T11:51:25.724Z,21.40
2023-09-14T11:54:03.624Z,21.50
2023-09-14T11:56:36.644Z,21.60
2023-09-14T11:59:05.983Z,21.80
2023-09-14T12:01:35.952Z,22.00
2023-09-14T12:04:07.022Z,22.10
2023-09-14T12:06:34.412Z,22.30
2023-09-14T12:09:01.585Z,22.30
2023-09-14T12:11:43.947Z,22.40
2023-09-14T12:14:11.418Z,22.30
2023-09-14T12:16:40.275Z,22.20
2023-09-14T12:19:13.420Z,22.10
2023-09-14T12:21:41.396Z,22.40
2023-09-14T12:24:09.484Z,22.40
2023-09-14T12:26:36.783Z,22.30
2023-09-14T12:29:04.292Z,22.40
2023-09-14T12:31:33.038Z,22.10
2023-09-14T12:34:00.577Z,21.70
2023-09-14T12:36:28.193Z,21.50
2023-09-14T12:38:55.519Z,21.40
2023-09-14T12:41:23.699Z,21.50
2023-09-14T12:43:51.380Z,21.60
2023-09-14T12:46:19.516Z,21.90
2023-09-14T12:48:47.394Z,22.00
2023-09-14T12:51:18.275Z,22.10
2023-09-14T12:53:45.996Z,22.10
2023-09-14T12:56:14.220Z,22.10
2023-09-14T12:58:45.385Z,21.80
2023-09-14T13:01:12.823Z,22.00
2023-09-14T13:03:40.713Z,22.00
2023-09-14T13:06:08.248Z,22.00
2023-09-14T13:08:48.556Z,22.30
2023-09-14T13:11:33.105Z,22.40
2023-09-14T13:14:00.818Z,22.40
2023-09-14T13:16:31.041Z,22.40
2023-09-14T13:19:02.719Z,22.30
2023-09-14T13:21:29.944Z,22.10
2023-09-14T13:23:58.382Z,22.10
2023-09-14T13:26:25.574Z,22.10
2023-09-14T13:28:53.338Z,22.10
2023-09-14T13:31:20.684Z,21.90
2023-09-14T13:33:48.363Z,21.70
2023-09-14T13:36:15.597Z,21.60
2023-09-14T13:38:42.832Z,21.60
2023-09-14T13:41:10.431Z,21.70
2023-09-14T13:43:37.526Z,22.10
2023-09-14T13:46:04.862Z,22.30
2023-09-14T13:48:32.206Z,22.30
2023-09-14T13:51:00.909Z,22.20
2023-09-14T13:53:29.012Z,22.30
2023-09-14T13:55:56.401Z,22.20
2023-09-14T13:58:23.708Z,22.20
2023-09-14T14:00:50.841Z,22.10
2023-09-14T14:03:19.183Z,22.10
2023-09-14T14:05:46.294Z,22.00
2023-09-14T14:08:15.034Z,22.10
2023-09-14T14:10:42.146Z,22.00
2023-09-14T14:13:09.281Z,22.10
2023-09-14T14:15:37.265Z,21.80
2023-09-14T14:18:04.593Z,21.70
2023-09-14T14:20:31.776Z,21.70
2023-09-14T14:22:58.806Z,21.70
2023-09-14T14:25:25.959Z,21.80
2023-09-14T14:27:53.538Z,21.70
2023-09-14T14:30:20.831Z,21.80
2023-09-14T14:32:47.936Z,21.70
2023-09-14T14:35:16.004Z,21.70
2023-09-14T14:37:43.232Z,21.90
2023-09-14T14:40:29.968Z,21.80
2023-09-14T14:43:01.615Z,21.80
2023-09-14T14:45:28.869Z,21.80
2023-09-14T14:47:56.055Z,21.70
2023-09-14T14:50:23.108Z,21.70
2023-09-14T14:52:50.354Z,21.60
2023-09-14T14:55:18.155Z,21.60
2023-09-14T14:57:45.353Z,21.60
2023-09-14T15:00:13.036Z,21.40
2023-09-14T15:02:40.215Z,21.40
2023-09-14T15:05:09.896Z,21.30
2023-09-14T15:07:37.093Z,21.30
2023-09-14T15:10:04.649Z,21.10
2023-09-14T15:12:32.101Z,21.00
2023-09-14T15:14:59.309Z,20.80
2023-09-14T15:17:26.592Z,20.80
2023-09-14T15:19:53.727Z,20.60
2023-09-14T15:22:20.909Z,20.50
2023-09-14T15:24:48.133Z,20.50
2023-09-14T15:27:15.233Z,20.40
2023-09-14T15:29:42.354Z,20.30
2023-09-14T15:32:09.474Z,20.20
2023-09-14T15:34:36.638Z,20.20
2023-09-14T15:37:03.971Z,20.10
2023-09-14T15:39:32.327Z,20.10
2023-09-14T15:42:00.007Z,20.10
2023-09-14T15:44:28.160Z,20.10
2023-09-14T15:46:56.168Z,20.10
2023-09-14T15:49:25.881Z,20.10
2023-09-14T15:51:53.788Z,20.20
2023-09-14T15:54:22.033Z,20.20
2023-09-14T15:56:49.415Z,20.40
2023-09-14T15:59:16.568Z,20.60
2023-09-14T16:01:46.067Z,20.80
2023-09-14T16:04:14.754Z,20.90
2023-09-14T16:06:50.297Z,20.80
2023-09-14T16:09:18.205Z,20.70
2023-09-14T16:11:47.019Z,20.60
2023-09-14T16:14:15.824Z,20.50
2023-09-14T16:16:47.830Z,20.40
2023-09-14T16:19:17.101Z,20.40
2023-09-14T16:21:44.955Z,20.30
2023-09-14T16:24:12.469Z,20.30
2023-09-14T16:26:39.667Z,20.20
2023-09-14T16:29:07.010Z,20.10
2023-09-14T16:31:34.166Z,20.10
2023-09-14T16:34:01.498Z,20.10
2023-09-14T16:36:28.792Z,20.00
2023-09-14T16:38:59.987Z,20.00
2023-09-14T16:41:27.169Z,19.90
2023-09-14T16:43:54.381Z,19.80
2023-09-14T16:46:21.660Z,19.70
2023-09-14T16:48:50.354Z,19.60
2023-09-14T16:51:17.520Z,19.50
2023-09-14T16:53:44.585Z,19.30
2023-09-14T16:56:11.616Z,19.20
2023-09-14T16:58:38.699Z,19.00
2023-09-14T17:01:08.627Z,18.80
2023-09-14T17:03:37.208Z,18.70
2023-09-14T17:06:06.334Z,18.60
2023-09-14T17:08:33.470Z,18.50
2023-09-14T17:11:00.631Z,18.40
2023-09-14T17:13:28.055Z,18.30
2023-09-14T17:15:55.255Z,18.20
2023-09-14T17:18:22.541Z,18.00
2023-09-14T17:20:49.673Z,17.80
2023-09-14T17:23:16.788Z,17.70
2023-09-14T17:25:44.049Z,17.50
2023-09-14T17:28:12.546Z,17.40
2023-09-14T17:30:40.388Z,17.20
2023-09-14T17:33:07.566Z,17.10
2023-09-14T17:35:35.674Z,16.90
2023-09-14T17:38:03.562Z,16.80
2023-09-14T17:40:32.703Z,16.70
2023-09-14T17:42:59.809Z,16.60
2023-09-14T17:45:28.820Z,16.50
2023-09-14T17:47:56.030Z,16.40
2023-09-14T17:50:26.898Z,16.30
2023-09-14T17:52:54.109Z,16.20
2023-09-14T17:55:24.140Z,16.10
2023-09-14T17:57:51.340Z,16.00
2023-09-14T18:00:18.590Z,15.90
2023-09-14T18:02:49.009Z,15.80
2023-09-14T18:05:17.222Z,15.70
2023-09-14T18:07:45.048Z,15.60
2023-09-14T18:10:15.323Z,15.50
2023-09-14T18:12:42.583Z,15.40
2023-09-14T18:15:11.378Z,15.30
2023-09-14T18:17:40.175Z,15.30
2023-09-14T18:20:11.383Z,15.20
2023-09-14T18:22:41.990Z,15.10
2023-09-14T18:25:10.754Z,15.00
2023-09-14T18:27:38.764Z,15.00
2023-09-14T18:30:07.485Z,14.90
2023-09-14T18:32:34.813Z,14.80
2023-09-14T18:35:01.995Z,14.70
2023-09-14T18:37:29.341Z,14.70
2023-09-14T18:39:57.934Z,14.60
2023-09-14T18:42:25.183Z,14.60
2023-09-14T18:44:53.321Z,14.50
2023-09-14T18:47:21.416Z,14.40
2023-09-14T18:49:48.713Z,14.30
2023-09-14T18:52:16.792Z,14.30
2023-09-14T18:54:44.602Z,14.30
2023-09-14T18:57:11.739Z,14.20
2023-09-14T18:59:39.210Z,14.10
2023-09-14T19:02:09.032Z,14.00
2023-09-14T19:04:36.158Z,14.00
2023-09-14T19:07:04.011Z,13.90
2023-09-14T19:09:32.075Z,13.90
2023-09-14T19:11:59.445Z,13.80
2023-09-14T19:14:26.602Z,13.80
2023-09-14T19:16:54.049Z,13.70
2023-09-14T19:19:21.304Z,13.70
2023-09-14T19:21:48.479Z,13.70
2023-09-14T19:24:15.652Z,13.60
2023-09-14T19:26:42.895Z,13.60
2023-09-14T19:29:10.164Z,13.50
2023-09-14T19:31:37.342Z,13.50
2023-09-14T19:34:05.077Z,13.50
2023-09-14T19:36:32.970Z,13.40
2023-09-14T19:39:00.048Z,13.40
2023-09-14T19:41:27.164Z,13.40
2023-09-14T19:43:54.224Z,13.40
2023-09-14T19:46:21.481Z,13.40
2023-09-14T19:48:49.025Z,13.30
2023-09-14T19:51:18.561Z,13.40
2023-09-14T19:53:46.144Z,13.30
2023-09-14T19:56:13.218Z,13.30
2023-09-14T19:58:40.449Z,13.30
2023-09-14T20:01:07.958Z,13.30
2023-09-14T20:03:35.485Z,13.30
2023-09-14T20:06:05.230Z,13.20
2023-09-14T20:08:32.543Z,13.20
2023-09-14T20:11:01.076Z,13.10
2023-09-14T20:13:28.394Z,13.10
2023-09-14T20:15:55.685Z,13.10
2023-09-14T20:18:22.946Z,13.10
2023-09-14T20:20:49.982Z,13.00
2023-09-14T20:23:17.179Z,13.00
2023-09-14T20:25:44.873Z,12.90
2023-09-14T20:28:15.218Z,12.90
2023-09-14T20:30:44.408Z,12.80
2023-09-14T20:33:11.609Z,12.80
2023-09-14T20:35:38.820Z,12.80
2023-09-14T20:38:06.063Z,12.80
2023-09-14T20:40:33.166Z,12.70
2023-09-14T20:43:00.512Z,12.70
2023-09-14T20:45:27.769Z,12.60
2023-09-14T20:47:55.165Z,12.60
2023-09-14T20:50:23.232Z,12.60
2023-09-14T20:52:53.298Z,12.50
2023-09-14T20:55:20.879Z,12.50
2023-09-14T20:57:57.856Z,12.40
2023-09-14T21:00:25.490Z,12.40
2023-09-14T21:02:52.759Z,12.40
2023-09-14T21:05:20.111Z,12.30
2023-09-14T21:07:47.234Z,12.30
2023-09-14T21:10:14.353Z,12.30
2023-09-14T21:12:41.541Z,12.30
2023-09-14T21:15:09.139Z,12.20
2023-09-14T21:17:36.163Z,12.20
2023-09-14T21:20:03.436Z,12.20
2023-09-14T21:22:30.523Z,12.20
2023-09-14T21:24:59.542Z,12.20
2023-09-14T21:27:27.835Z,12.10
2023-09-14T21:29:55.264Z,12.10
2023-09-14T21:32:22.528Z,12.10
2023-09-14T21:34:49.812Z,12.00
2023-09-14T21:37:18.457Z,12.00
2023-09-14T21:39:45.850Z,12.00
2023-09-14T21:42:13.729Z,12.00
2023-09-14T21:44:40.839Z,12.00
2023-09-14T21:47:07.921Z,11.90
2023-09-14T21:49:38.229Z,11.90
2023-09-14T21:52:07.645Z,11.80
2023-09-14T21:54:36.855Z,11.80
2023-09-14T21:57:07.085Z,11.80
2023-09-14T21:59:36.686Z,11.70
2023-09-14T22:02:06.424Z,11.80
2023-09-14T22:04:37.750Z,11.70
2023-09-14T22:07:05.108Z,11.60
2023-09-14T22:09:34.842Z,11.60
2023-09-14T22:12:04.417Z,11.60
2023-09-14T22:14:31.771Z,11.60
2023-09-14T22:17:01.353Z,11.60
2023-09-14T22:19:30.241Z,11.50
2023-09-14T22:21:58.358Z,11.50
2023-09-14T22:24:26.336Z,11.50
2023-09-14T22:26:54.002Z,11.50
2023-09-14T22:29:21.464Z,11.50
2023-09-14T22:31:49.078Z,11.50
2023-09-14T22:34:16.335Z,11.40
2023-09-14T22:36:43.794Z,11.40
2023-09-14T22:39:11.328Z,11.40
2023-09-14T22:41:40.286Z,11.40
2023-09-14T22:44:09.964Z,11.40
2023-09-14T22:46:37.152Z,11.40
2023-09-14T22:49:05.264Z,11.50
2023-09-14T22:51:32.508Z,11.50
2023-09-14T22:54:01.547Z,11.50
2023-09-14T22:56:29.177Z,11.50
2023-09-14T22:58:56.248Z,11.50
2023-09-14T23:01:27.003Z,11.50
2023-09-14T23:03:55.380Z,11.50
2023-09-14T23:06:22.834Z,11.50
2023-09-14T23:08:50.937Z,11.50
2023-09-14T23:11:25.225Z,11.50
2023-09-14T23:13:53.172Z,11.50
2023-09-14T23:16:28.365Z,11.50
2023-09-14T23:18:56.569Z,11.50
2023-09-14T23:21:23.721Z,11.60
2023-09-14T23:23:51.081Z,11.60
2023-09-14T23:26:18.173Z,11.60
2023-09-14T23:28:45.678Z,11.50
2023-09-14T23:31:13.249Z,11.50
2023-09-14T23:33:41.796Z,11.50
2023-09-14T23:36:12.630Z,11.50
2023-09-14T23:38:43.457Z,11.40
2023-09-14T23:41:12.434Z,11.40
2023-09-14T23:43:43.098Z,11.30
2023-09-14T23:46:12.743Z,11.20
2023-09-14T23:48:42.290Z,11.20
2023-09-14T23:51:09.910Z,11.10
2023-09-14T23:53:39.352Z,11.10
2023-09-14T23:56:07.856Z,11.10
2023-09-14T23:58:35.011Z,11.00
